Time;durP1;ratioP1;P1;durP2;ratioP2;P2;SDS_P1;SDS_P2;PMS_P1;PMS_P2;Temp;Humidity;BMP_temperature;BMP_pressure;BME280_temperature;BME280_humidity;BME280_pressure;Samples;Min_cycle;Max_cycle;Signal;HPM_P1;HPM_P2
2022/07/21 00:02:04;;;;;;;25.60;14.50;;;;;;;19.96;100.00;100802.13;5030978;28;20764;-86
2022/07/21 00:04:37;;;;;;;21.77;14.13;;;;;;;19.81;100.00;100801.59;5051260;28;20414;-89
2022/07/21 00:07:11;;;;;;;20.42;13.63;;;;;;;19.92;100.00;100801.19;5052209;28;20414;-85
2022/07/21 00:09:44;;;;;;;22.48;13.55;;;;;;;19.90;100.00;100804.28;5050823;28;20421;-87
2022/07/21 00:12:17;;;;;;;22.00;13.73;;;;;;;19.94;100.00;100799.72;5050118;28;20422;-85
2022/07/21 00:14:47;;;;;;;19.58;13.38;;;;;;;19.83;100.00;100802.09;5051990;28;20413;-88
2022/07/21 00:17:20;;;;;;;20.42;13.95;;;;;;;19.77;100.00;100792.34;5049738;28;20421;-86
2022/07/21 00:19:53;;;;;;;23.20;13.60;;;;;;;19.80;100.00;100794.44;5050546;28;20912;-84
2022/07/21 00:22:21;;;;;;;21.90;13.60;;;;;;;19.78;100.00;100787.66;5050215;28;20897;-85
2022/07/21 00:24:55;;;;;;;22.13;13.13;;;;;;;19.54;100.00;100792.72;5050321;28;20429;-88
2022/07/21 00:27:23;;;;;;;22.23;13.47;;;;;;;19.59;100.00;100794.47;5050196;28;20459;-86
2022/07/21 00:29:57;;;;;;;22.20;14.20;;;;;;;19.42;100.00;100789.13;5051015;28;20432;-93
2022/07/21 00:32:31;;;;;;;23.73;13.50;;;;;;;19.36;100.00;100769.16;5051940;28;20417;-90
2022/07/21 00:35:00;;;;;;;22.08;13.07;;;;;;;19.39;100.00;100771.28;5051015;28;20418;-90
2022/07/21 00:37:33;;;;;;;20.15;13.27;;;;;;;19.50;100.00;100768.88;5051713;28;20420;-90
2022/07/21 00:40:08;;;;;;;22.70;13.52;;;;;;;19.45;100.00;100769.13;5050082;28;20413;-86
2022/07/21 00:42:41;;;;;;;22.10;13.52;;;;;;;19.29;100.00;100755.13;5050782;28;20417;-85
2022/07/21 00:45:16;;;;;;;20.23;13.48;;;;;;;19.34;100.00;100763.19;5049944;28;20402;-86
2022/07/21 00:47:49;;;;;;;19.93;13.67;;;;;;;19.15;100.00;100758.16;5049862;28;20444;-87
2022/07/21 00:50:20;;;;;;;20.75;13.65;;;;;;;19.14;100.00;100742.72;5050049;28;20782;-88
2022/07/21 00:52:49;;;;;;;21.45;13.68;;;;;;;19.38;100.00;100769.66;5037703;28;20411;-85
2022/07/21 00:55:21;;;;;;;22.92;14.15;;;;;;;19.22;100.00;100758.41;5031970;28;20903;-87
2022/07/21 00:57:54;;;;;;;20.35;13.68;;;;;;;19.28;100.00;100759.84;5029862;28;20427;-85
2022/07/21 01:00:30;;;;;;;21.85;14.32;;;;;;;19.18;100.00;100762.97;5031693;28;20422;-86
2022/07/21 01:03:04;;;;;;;21.42;14.35;;;;;;;19.14;100.00;100770.31;5034060;28;20427;-84
2022/07/21 01:05:37;;;;;;;21.73;13.85;;;;;;;19.10;100.00;100759.16;5030023;28;20422;-86
2022/07/21 01:08:11;;;;;;;21.48;13.85;;;;;;;19.09;100.00;100763.06;5030083;28;20430;-87
2022/07/21 01:10:44;;;;;;;21.25;13.13;;;;;;;19.08;100.00;100766.94;5030141;28;20426;-85
2022/07/21 01:13:17;;;;;;;23.25;14.18;;;;;;;19.09;100.00;100765.81;5031514;28;20422;-84
2022/07/21 01:15:52;;;;;;;23.77;14.03;;;;;;;19.03;100.00;100770.72;5030123;28;20422;-85
2022/07/21 01:18:26;;;;;;;23.75;14.68;;;;;;;18.95;100.00;100768.84;5031437;28;20422;-84
2022/07/21 01:21:04;;;;;;;23.13;14.40;;;;;;;18.73;100.00;100738.78;5031360;28;20407;-91
2022/07/21 01:23:39;;;;;;;22.20;13.32;;;;;;;18.86;100.00;100768.88;5033208;28;20418;-85
2022/07/21 01:26:12;;;;;;;26.90;14.38;;;;;;;18.84;100.00;100762.06;5035327;28;20437;-86
2022/07/21 01:28:40;;;;;;;21.33;13.80;;;;;;;18.86;100.00;100757.00;5033361;28;20887;-88
2022/07/21 01:31:13;;;;;;;21.30;14.25;;;;;;;18.91;100.00;100756.06;5033569;28;20423;-85
2022/07/21 01:33:47;;;;;;;25.88;14.32;;;;;;;18.85;100.00;100758.16;5035201;28;20411;-88
2022/07/21 01:36:20;;;;;;;21.83;14.63;;;;;;;18.78;100.00;100738.56;5033286;28;20423;-86
2022/07/21 01:42:00;;;;;;;22.95;14.60;;;;;;;18.72;100.00;100734.41;5013898;28;20416;-87
2022/07/21 01:44:29;;;;;;;25.38;14.32;;;;;;;18.65;100.00;100738.50;4996581;28;20420;-89
2022/07/21 01:47:02;;;;;;;23.60;14.67;;;;;;;18.62;100.00;100732.84;5024567;28;20434;-88
2022/07/21 01:49:30;;;;;;;22.23;14.50;;;;;;;18.59;100.00;100734.31;5035352;28;20430;-89
2022/07/21 01:52:03;;;;;;;20.35;13.73;;;;;;;18.57;100.00;100730.28;5033207;28;20423;-88
2022/07/21 01:54:33;;;;;;;24.27;14.63;;;;;;;18.50;100.00;100739.06;5034864;28;20398;-90
2022/07/21 01:57:06;;;;;;;21.50;13.82;;;;;;;18.35;100.00;100718.38;5034528;28;20436;-92
2022/07/21 01:59:40;;;;;;;21.53;14.13;;;;;;;18.54;100.00;100726.25;5033298;28;20419;-88
2022/07/21 02:02:08;;;;;;;23.30;13.98;;;;;;;18.49;100.00;100731.94;5033383;28;20441;-90
2022/07/21 02:04:41;;;;;;;20.73;13.90;;;;;;;18.44;100.00;100734.91;5034341;28;20434;-89
2022/07/21 02:07:15;;;;;;;20.43;13.43;;;;;;;18.56;100.00;100778.25;5032779;28;20515;-88
2022/07/21 02:09:44;;;;;;;22.45;14.27;;;;;;;18.33;100.00;100848.22;5035134;28;20438;-90
2022/07/21 02:12:12;;;;;;;22.05;14.05;;;;;;;18.18;100.00;100873.53;5034279;28;20437;-89
2022/07/21 02:14:41;;;;;;;23.05;12.95;;;;;;;18.22;100.00;100796.56;5034370;28;20469;-87
2022/07/21 02:17:14;;;;;;;21.48;12.68;;;;;;;18.33;100.00;100814.34;5032915;28;20426;-89
2022/07/21 02:19:47;;;;;;;18.63;12.02;;;;;;;18.35;100.00;100856.16;5033339;28;20426;-92
2022/07/21 02:22:20;;;;;;;23.77;11.87;;;;;;;18.22;100.00;100851.66;5033092;28;20419;-91
2022/07/21 02:24:55;;;;;;;19.77;11.40;;;;;;;18.18;100.00;100826.72;5032555;28;20438;-90
2022/07/21 02:27:28;;;;;;;16.37;10.43;;;;;;;18.13;100.00;100813.09;5034040;28;20779;-89
2022/07/21 02:29:56;;;;;;;17.73;10.45;;;;;;;18.26;100.00;100836.09;5032640;28;20419;-89
2022/07/21 02:32:24;;;;;;;17.08;10.35;;;;;;;18.33;100.00;100845.47;5032983;28;20427;-87
2022/07/21 02:34:57;;;;;;;17.08;9.77;;;;;;;18.33;100.00;100836.41;5032183;28;20427;-89
2022/07/21 02:37:31;;;;;;;17.30;10.25;;;;;;;18.16;100.00;100820.69;5033851;28;20776;-89
2022/07/21 02:40:07;;;;;;;18.35;10.23;;;;;;;18.18;100.00;100838.53;5032225;28;20787;-87
2022/07/21 02:42:37;;;;;;;15.43;9.77;;;;;;;18.11;100.00;100849.22;5032580;28;20411;-87
2022/07/21 02:45:11;;;;;;;17.20;9.27;;;;;;;18.00;100.00;100829.50;5032006;28;20419;-92
2022/07/21 02:47:52;;;;;;;16.13;9.20;;;;;;;18.09;100.00;100826.72;5032543;28;20950;-88
2022/07/21 02:50:21;;;;;;;17.60;9.20;;;;;;;18.07;100.00;100812.47;5049079;28;21124;-85
2022/07/21 02:52:56;;;;;;;14.70;8.80;;;;;;;18.11;100.00;100815.38;5034077;28;20438;-87
2022/07/21 02:55:31;;;;;;;14.50;8.85;;;;;;;17.96;100.00;100817.50;5032476;28;20415;-87
2022/07/21 02:58:10;;;;;;;13.88;8.55;;;;;;;17.90;100.00;100804.19;5032294;28;20423;-88
2022/07/21 03:00:45;;;;;;;13.13;8.60;;;;;;;18.00;100.00;100809.41;5031879;28;20484;-88
2022/07/21 03:03:20;;;;;;;14.80;8.63;;;;;;;17.95;100.00;100812.34;5032761;28;20414;-86
2022/07/21 03:05:48;;;;;;;14.70;8.25;;;;;;;17.86;100.00;100795.81;5032397;28;20423;-91
2022/07/21 03:08:17;;;;;;;15.27;8.45;;;;;;;18.01;100.00;100817.34;5032040;28;20426;-87
2022/07/21 03:10:52;;;;;;;15.13;7.97;;;;;;;18.01;100.00;100827.56;5031302;28;20423;-88
2022/07/21 03:13:21;;;;;;;15.73;7.82;;;;;;;18.01;100.00;100833.88;5031541;28;20427;-86
2022/07/21 03:15:52;;;;;;;14.50;8.13;;;;;;;18.12;100.00;100836.28;5032907;28;20894;-88
2022/07/21 03:18:25;;;;;;;14.95;7.80;;;;;;;18.12;100.00;100837.09;5033204;28;20894;-89
2022/07/21 03:20:53;;;;;;;12.88;7.72;;;;;;;18.18;100.00;100830.25;5033295;28;20415;-89
2022/07/21 03:23:26;;;;;;;14.27;7.95;;;;;;;17.98;100.00;100806.16;5031908;28;20419;-94
2022/07/21 03:25:56;;;;;;;11.55;7.53;;;;;;;18.09;100.00;100818.47;5031910;28;20918;-90
2022/07/21 03:28:29;;;;;;;13.90;7.85;;;;;;;18.07;100.00;100806.97;5031726;28;20422;-91
2022/07/21 03:31:02;;;;;;;12.60;7.47;;;;;;;18.07;100.00;100819.94;5031855;28;20426;-89
2022/07/21 03:33:36;;;;;;;13.18;7.40;;;;;;;18.07;100.00;100822.69;5032184;28;20430;-89
2022/07/21 03:36:09;;;;;;;13.13;7.78;;;;;;;17.88;100.00;100782.50;5032993;28;20426;-90
2022/07/21 03:38:43;;;;;;;14.40;7.88;;;;;;;17.94;100.00;100780.41;5031862;28;20419;-88
2022/07/21 03:41:17;;;;;;;13.98;7.63;;;;;;;17.98;100.00;100797.91;5031326;28;20434;-90
2022/07/21 03:43:50;;;;;;;14.23;7.50;;;;;;;17.89;100.00;100781.38;5031131;28;20423;-91
2022/07/21 03:46:24;;;;;;;16.75;7.88;;;;;;;18.07;100.00;100808.91;5032124;28;20484;-88
2022/07/21 03:48:57;;;;;;;15.18;7.63;;;;;;;18.00;100.00;100812.97;5031836;28;20485;-89
2022/07/21 03:51:25;;;;;;;12.75;7.43;;;;;;;17.99;100.00;100814.13;5031736;28;20426;-93
2022/07/21 03:54:01;;;;;;;14.00;7.85;;;;;;;18.04;100.00;100843.41;5030977;28;20431;-87
2022/07/21 03:56:36;;;;;;;13.32;7.63;;;;;;;17.99;100.00;100858.19;5031354;28;20411;-87
2022/07/21 03:59:09;;;;;;;17.05;8.13;;;;;;;18.04;100.00;100842.63;5031572;28;20423;-86
2022/07/21 04:01:42;;;;;;;16.98;8.48;;;;;;;18.03;100.00;100855.56;5032974;28;20415;-85
2022/07/21 04:04:10;;;;;;;13.52;7.97;;;;;;;17.71;100.00;100808.13;5031817;28;20426;-91
2022/07/21 04:06:43;;;;;;;13.45;7.60;;;;;;;17.96;100.00;100852.50;5031720;28;20903;-88
2022/07/21 04:09:17;;;;;;;15.95;8.00;;;;;;;17.97;100.00;100854.94;5032534;28;20426;-89
2022/07/21 04:11:47;;;;;;;15.20;7.85;;;;;;;17.89;100.00;100846.66;5032725;28;20748;-93
2022/07/21 04:14:20;;;;;;;15.75;8.38;;;;;;;17.93;100.00;100850.41;5031085;28;20423;-91
2022/07/21 04:16:53;;;;;;;15.63;8.38;;;;;;;17.99;100.00;100855.44;5032470;28;20415;-91
2022/07/21 04:19:22;;;;;;;14.67;8.73;;;;;;;17.99;100.00;100860.09;5031204;28;20427;-86
2022/07/21 04:21:55;;;;;;;16.95;8.40;;;;;;;18.00;100.00;100853.47;5033015;28;20875;-87
2022/07/21 04:24:28;;;;;;;16.38;8.52;;;;;;;18.01;100.00;100850.38;5031982;28;20415;-87
2022/07/21 04:27:03;;;;;;;14.45;8.57;;;;;;;17.97;100.00;100854.13;5030781;28;20926;-88
2022/07/21 04:29:36;;;;;;;17.80;8.93;;;;;;;17.82;100.00;100860.91;5031579;28;20431;-90
2022/07/21 04:32:05;;;;;;;17.33;8.65;;;;;;;18.06;100.00;100873.38;5031056;28;20784;-84
2022/07/21 04:34:33;;;;;;;17.45;7.97;;;;;;;17.85;100.00;100828.00;5031845;28;20423;-88
2022/07/21 04:37:06;;;;;;;19.13;8.25;;;;;;;18.18;100.00;100865.28;5030166;28;20438;-89
2022/07/21 04:39:34;;;;;;;18.27;8.07;;;;;;;18.20;100.00;100854.72;5031101;28;20419;-89
2022/07/21 04:42:04;;;;;;;17.27;8.13;;;;;;;18.00;100.00;100814.91;5032584;28;20939;-91
2022/07/21 04:44:37;;;;;;;17.45;7.35;;;;;;;18.24;100.00;100846.63;5030184;28;21099;-87
2022/07/21 04:47:11;;;;;;;16.15;7.40;;;;;;;18.30;100.00;100848.06;5032082;28;20438;-92
2022/07/21 04:49:44;;;;;;;16.67;7.32;;;;;;;18.60;100.00;100872.94;5033897;28;20796;-89
2022/07/21 04:52:17;;;;;;;16.02;6.93;;;;;;;18.60;100.00;100864.66;5030381;28;20427;-90
2022/07/21 04:54:45;;;;;;;15.23;7.10;;;;;;;18.62;100.00;100863.19;5030161;28;20437;-90
2022/07/21 04:57:20;;;;;;;15.88;6.78;;;;;;;18.59;100.00;100865.78;5031099;28;20407;-90
2022/07/21 04:59:48;;;;;;;13.70;6.30;;;;;;;18.52;100.00;100869.88;5038345;28;20433;-90
2022/07/21 05:02:21;;;;;;;13.20;6.28;;;;;;;18.60;100.00;100867.41;5030440;28;20945;-89
2022/07/21 05:04:54;;;;;;;13.48;6.13;;;;;;;18.65;100.00;100875.50;5035917;28;20427;-90
2022/07/21 05:07:28;;;;;;;12.73;5.80;;;;;;;18.65;100.00;100878.28;5036430;28;20524;-89
2022/07/21 05:09:58;;;;;;;13.38;5.80;;;;;;;18.60;100.00;100870.19;5031747;28;20412;-91
2022/07/21 05:12:28;;;;;;;14.23;5.93;;;;;;;18.21;100.00;100825.25;5032904;28;20418;-92
2022/07/21 05:14:58;;;;;;;13.13;5.45;;;;;;;18.61;100.00;100891.88;5035706;28;20427;-92
2022/07/21 05:17:27;;;;;;;12.03;5.33;;;;;;;18.66;100.00;100879.91;5036051;28;20426;-90
2022/07/21 05:19:55;;;;;;;11.95;5.10;;;;;;;18.65;100.00;100870.00;5035017;28;20433;-88
2022/07/21 05:22:23;;;;;;;12.70;5.07;;;;;;;18.61;100.00;100858.00;5033204;28;20428;-91
2022/07/21 05:24:52;;;;;;;11.55;4.88;;;;;;;18.65;100.00;100845.19;5032904;28;20423;-88
2022/07/21 05:27:20;;;;;;;11.45;4.55;;;;;;;18.94;100.00;100855.47;5035154;28;20449;-92
2022/07/21 05:29:49;;;;;;;11.02;4.65;;;;;;;19.33;100.00;100831.38;5033623;28;20434;-89
2022/07/21 05:32:23;;;;;;;11.45;4.70;;;;;;;19.74;100.00;100798.56;5031874;28;20792;-90
2022/07/21 05:34:56;;;;;;;9.93;4.95;;;;;;;20.56;100.00;100785.97;5031487;28;20435;-90
2022/07/21 05:37:25;;;;;;;10.75;4.60;;;;;;;21.53;100.00;100782.63;5023934;28;20822;-89
2022/07/21 05:39:58;;;;;;;11.57;4.47;;;;;;;22.12;100.00;100797.66;5033711;28;21119;-91
2022/07/21 05:42:27;;;;;;;10.23;4.72;;;;;;;21.51;100.00;100787.69;5032209;28;20419;-87
2022/07/21 05:45:01;;;;;;;11.82;4.75;;;;;;;20.95;100.00;100810.53;5024434;28;20897;-88
2022/07/21 05:47:35;;;;;;;9.02;4.32;;;;;;;20.52;100.00;100807.97;5030634;28;20431;-88
2022/07/21 05:50:03;;;;;;;11.70;4.55;;;;;;;20.32;100.00;100792.28;5046907;28;20423;-89
2022/07/21 05:52:32;;;;;;;11.02;4.72;;;;;;;20.40;100.00;100807.97;5033275;28;20411;-87
2022/07/21 05:55:00;;;;;;;10.95;4.75;;;;;;;20.36;100.00;100801.50;5032699;28;20803;-91
2022/07/21 05:57:33;;;;;;;7.20;3.97;;;;;;;20.36;100.00;100807.84;5029918;28;20530;-85
2022/07/21 06:00:09;;;;;;;8.75;4.30;;;;;;;20.49;100.00;100810.63;5032728;28;20422;-90
2022/07/21 06:02:38;;;;;;;8.95;4.10;;;;;;;20.55;100.00;100809.25;5035870;28;20449;-91
2022/07/21 06:05:08;;;;;;;9.75;3.90;;;;;;;20.70;100.00;100827.94;5032881;28;20422;-90
2022/07/21 06:07:42;;;;;;;9.57;3.92;;;;;;;20.75;100.00;100812.28;5030594;28;20480;-92
2022/07/21 06:10:11;;;;;;;8.23;4.00;;;;;;;20.79;100.00;100829.78;5024997;28;20913;-88
2022/07/21 06:12:39;;;;;;;9.50;4.10;;;;;;;20.92;100.00;100847.97;5027746;28;20423;-89
2022/07/21 06:15:10;;;;;;;8.80;3.70;;;;;;;21.03;100.00;100865.75;5033203;28;20434;-83
2022/07/21 06:17:46;;;;;;;8.20;3.72;;;;;;;21.08;100.00;100867.47;5039968;28;20430;-86
2022/07/21 06:20:14;;;;;;;8.32;3.60;;;;;;;21.06;100.00;100883.63;5032356;28;20427;-88
2022/07/21 06:22:43;;;;;;;8.35;3.42;;;;;;;21.05;100.00;100884.78;5032783;28;20744;-85
2022/07/21 06:25:11;;;;;;;9.48;3.35;;;;;;;21.10;100.00;100890.06;5031390;28;20415;-83
2022/07/21 06:27:44;;;;;;;9.20;3.50;;;;;;;21.14;100.00;100882.66;5031799;28;20943;-83
2022/07/21 06:30:19;;;;;;;10.40;3.30;;;;;;;21.09;100.00;100863.56;5024956;28;20434;-87
2022/07/21 06:32:47;;;;;;;10.40;2.97;;;;;;;21.09;100.00;100846.13;5032351;28;20928;-87
2022/07/21 06:35:15;;;;;;;5.35;2.95;;;;;;;21.02;100.00;100835.66;5032349;28;20463;-86
2022/07/21 06:37:45;;;;;;;7.70;3.17;;;;;;;21.10;100.00;100853.28;5037538;28;20415;-83
2022/07/21 06:40:14;;;;;;;8.53;2.90;;;;;;;21.09;100.00;100849.72;5030732;28;20426;-85
2022/07/21 06:42:47;;;;;;;7.20;2.80;;;;;;;21.19;100.00;100853.97;5031870;28;20419;-86
2022/07/21 06:45:22;;;;;;;8.60;2.90;;;;;;;21.29;100.00;100836.06;5030869;28;20411;-80
2022/07/21 06:48:04;;;;;;;9.55;3.78;;;;;;;21.31;100.00;100842.06;5031021;28;20422;-79
2022/07/21 06:50:38;;;;;;;6.10;2.63;;;;;;;21.39;100.00;100835.56;5018874;28;20423;-81
2022/07/21 06:53:11;;;;;;;6.72;2.80;;;;;;;21.36;100.00;100834.34;5022567;28;20431;-83
2022/07/21 06:55:44;;;;;;;6.00;2.50;;;;;;;21.33;100.00;100825.91;5011200;28;20783;-81
2022/07/21 06:58:20;;;;;;;8.55;2.50;;;;;;;21.29;100.00;100831.34;5013493;28;20461;-81
2022/07/21 07:00:51;;;;;;;8.25;2.83;;;;;;;21.29;100.00;100825.00;5013135;28;20430;-82
2022/07/21 07:03:24;;;;;;;7.63;2.63;;;;;;;21.32;100.00;100819.59;5016203;28;20430;-81
2022/07/21 07:05:57;;;;;;;5.65;2.40;;;;;;;21.26;100.00;100818.19;5019297;28;21090;-83
2022/07/21 07:08:25;;;;;;;8.48;2.50;;;;;;;21.24;100.00;100812.22;5012344;28;20415;-81
2022/07/21 07:10:54;;;;;;;7.50;2.75;;;;;;;21.24;100.00;100810.25;5033754;28;21274;-89
2022/07/21 07:13:22;;;;;;;7.68;3.00;;;;;;;21.09;100.00;100799.91;5021412;28;20443;-89
2022/07/21 07:15:52;;;;;;;7.05;2.80;;;;;;;21.15;100.00;100828.94;5023423;28;20416;-89
2022/07/21 07:18:25;;;;;;;8.68;3.45;;;;;;;21.14;100.00;100834.81;5023751;28;20430;-87
2022/07/21 07:20:53;;;;;;;7.05;3.30;;;;;;;21.08;100.00;100833.47;5013845;28;20796;-88
2022/07/21 07:23:21;;;;;;;9.00;3.43;;;;;;;21.12;100.00;100821.34;5015866;28;20821;-90
2022/07/21 07:25:55;;;;;;;7.95;3.45;;;;;;;21.13;100.00;100816.59;5020392;28;21448;-89
2022/07/21 07:28:23;;;;;;;10.43;4.00;;;;;;;21.17;100.00;100817.53;5040740;28;20413;-88
2022/07/21 07:30:53;;;;;;;7.90;3.35;;;;;;;21.12;100.00;100824.09;5041213;28;20441;-86
2022/07/21 07:33:21;;;;;;;6.95;3.22;;;;;;;21.13;100.00;100845.09;5038576;28;20924;-85
2022/07/21 07:35:49;;;;;;;6.20;2.97;;;;;;;21.17;100.00;100875.63;5019027;28;20427;-87
2022/07/21 07:38:18;;;;;;;8.32;3.40;;;;;;;21.05;100.00;100882.78;5014907;28;20512;-88
2022/07/21 07:40:52;;;;;;;7.22;3.17;;;;;;;21.06;100.00;100883.63;5017733;28;20434;-87
2022/07/21 07:43:23;;;;;;;8.70;3.33;;;;;;;21.03;100.00;100887.88;5016792;28;20606;-87
2022/07/21 07:45:52;;;;;;;6.95;3.20;;;;;;;20.90;100.00;100889.03;5018880;28;20419;-88
2022/07/21 07:48:21;;;;;;;8.98;3.17;;;;;;;21.05;100.00;100901.38;5020680;28;20438;-89
2022/07/21 07:50:49;;;;;;;9.07;3.43;;;;;;;21.03;100.00;100907.25;5022381;28;21350;-88
2022/07/21 07:53:23;;;;;;;10.57;3.67;;;;;;;20.90;100.00;100909.19;5010425;28;20411;-86
2022/07/21 07:55:51;;;;;;;7.65;3.47;;;;;;;21.02;100.00;100935.28;5012795;28;20435;-87
2022/07/21 07:58:24;;;;;;;8.40;3.65;;;;;;;20.93;100.00;100923.50;5010139;28;20433;-87
2022/07/21 08:00:54;;;;;;;11.02;3.85;;;;;;;20.89;100.00;100926.97;5012613;28;20426;-89
2022/07/21 08:03:23;;;;;;;9.18;3.20;;;;;;;20.85;100.00;100936.28;5008235;28;20461;-88
2022/07/21 08:05:51;;;;;;;10.90;3.67;;;;;;;20.82;100.00;100935.00;5014427;28;20450;-85
2022/07/21 08:08:25;;;;;;;6.95;3.25;;;;;;;20.80;100.00;100955.84;5008011;28;21156;-82
2022/07/21 08:10:58;;;;;;;8.83;3.60;;;;;;;20.88;100.00;100969.59;5012368;28;20488;-80
2022/07/21 08:13:31;;;;;;;8.70;3.60;;;;;;;20.91;100.00;100973.63;5012129;28;20426;-82
2022/07/21 08:16:06;;;;;;;10.73;3.63;;;;;;;20.97;100.00;100972.25;5007333;28;20430;-79
2022/07/21 08:18:39;;;;;;;9.45;3.60;;;;;;;21.17;100.00;100976.09;5008721;28;20438;-82
2022/07/21 08:21:13;;;;;;;10.27;3.83;;;;;;;21.44;100.00;100986.81;5007614;28;20430;-83
2022/07/21 08:23:46;;;;;;;8.53;3.63;;;;;;;21.90;100.00;100979.97;5001277;28;20437;-83
2022/07/21 08:26:14;;;;;;;11.73;3.70;;;;;;;22.05;100.00;100969.31;5006145;28;20399;-82
2022/07/21 08:28:42;;;;;;;8.43;3.47;;;;;;;22.05;100.00;100969.31;5007897;28;20452;-81
2022/07/21 08:31:17;;;;;;;12.32;3.60;;;;;;;22.15;100.00;100974.38;4997983;28;20427;-82
2022/07/21 08:33:50;;;;;;;8.93;4.00;;;;;;;22.20;100.00;100978.84;5002833;28;20441;-82
2022/07/21 08:36:18;;;;;;;10.97;3.67;;;;;;;22.55;100.00;100986.56;5003000;28;20438;-81
2022/07/21 08:38:52;;;;;;;9.38;3.40;;;;;;;22.42;100.00;100988.59;5000055;28;20434;-83
2022/07/21 08:41:25;;;;;;;11.98;3.70;;;;;;;22.40;100.00;100988.97;4997616;28;20435;-81
2022/07/21 08:43:59;;;;;;;9.30;3.47;;;;;;;22.69;100.00;100983.38;5001457;28;20425;-80
2022/07/21 08:46:34;;;;;;;11.18;3.50;;;;;;;22.85;100.00;100977.88;5004792;28;20427;-82
2022/07/21 08:49:09;;;;;;;9.45;3.30;;;;;;;23.06;100.00;100978.41;4999965;28;21621;-82
2022/07/21 08:51:42;;;;;;;10.05;3.80;;;;;;;22.86;100.00;100966.41;4999359;28;20978;-80
2022/07/21 08:54:16;;;;;;;7.60;3.45;;;;;;;23.06;100.00;100964.53;5005731;28;20435;-88
2022/07/21 08:56:50;;;;;;;7.93;3.13;;;;;;;23.14;100.00;100956.41;5002961;28;20417;-87
2022/07/21 08:59:23;;;;;;;8.25;3.65;;;;;;;23.17;100.00;100956.47;5006656;28;20793;-87
2022/07/21 09:01:58;;;;;;;7.20;3.40;;;;;;;23.20;100.00;100953.00;5007743;28;21507;-87
2022/07/21 09:04:33;;;;;;;7.63;3.50;;;;;;;23.40;100.00;100942.75;5009961;28;20411;-89
2022/07/21 09:07:04;;;;;;;11.98;3.50;;;;;;;23.31;100.00;100950.50;5012652;28;20442;-87
2022/07/21 09:09:34;;;;;;;9.60;3.70;;;;;;;23.38;100.00;100947.88;5002707;28;20591;-88
2022/07/21 09:12:03;;;;;;;8.40;3.43;;;;;;;23.60;100.00;100957.50;5011068;28;20808;-88
2022/07/21 09:14:33;;;;;;;7.20;3.20;;;;;;;23.81;100.00;100952.78;5007919;28;20423;-89
2022/07/21 09:17:05;;;;;;;6.40;3.10;;;;;;;23.68;100.00;100966.00;5000377;28;21039;-88
2022/07/21 09:19:38;;;;;;;8.65;3.47;;;;;;;23.56;100.00;100964.94;5005721;28;20423;-87
2022/07/21 09:22:16;;;;;;;7.40;3.38;;;;;;;23.39;100.00;100968.13;5006968;28;20438;-89
2022/07/21 09:24:52;;;;;;;7.78;3.53;;;;;;;23.51;100.00;100970.00;5011665;28;20442;-87
2022/07/21 09:27:26;;;;;;;8.05;3.47;;;;;;;23.63;100.00;100980.97;5005807;28;20439;-87
2022/07/21 09:29:58;;;;;;;8.93;3.47;;;;;;;23.69;100.00;100984.28;5001046;28;20429;-87
2022/07/21 09:32:34;;;;;;;6.97;3.30;;;;;;;23.75;100.00;100982.81;5005368;28;20463;-88
2022/07/21 09:35:05;;;;;;;8.13;3.75;;;;;;;23.71;100.00;100977.19;5006918;28;20415;-86
2022/07/21 09:37:35;;;;;;;8.10;3.28;;;;;;;23.83;100.00;100981.00;5017139;28;20422;-89
2022/07/21 09:40:10;;;;;;;7.45;3.42;;;;;;;24.07;100.00;100977.19;4999575;28;20430;-88
2022/07/21 09:42:40;;;;;;;6.68;3.20;;;;;;;24.47;100.00;100978.78;5010345;28;20770;-88
2022/07/21 09:45:16;;;;;;;6.90;2.90;;;;;;;24.76;100.00;100976.56;5009942;28;20457;-87
2022/07/21 09:47:47;;;;;;;7.82;3.42;;;;;;;24.39;100.00;100966.72;5008437;28;20423;-89
2022/07/21 09:50:20;;;;;;;7.07;3.40;;;;;;;24.59;100.00;100988.94;5015041;28;20439;-89
2022/07/21 09:52:55;;;;;;;9.00;3.45;;;;;;;24.54;100.00;100983.66;5012463;28;20435;-88
2022/07/21 09:55:31;;;;;;;7.70;3.72;;;;;;;24.82;100.00;100994.56;5012470;28;20431;-90
2022/07/21 09:58:00;;;;;;;7.80;3.75;;;;;;;24.88;100.00;100989.50;5003585;28;20424;-88
2022/07/21 10:00:34;;;;;;;8.85;4.30;;;;;;;24.73;100.00;100989.22;5009168;28;20436;-89
2022/07/21 10:03:09;;;;;;;9.15;4.70;;;;;;;24.50;100.00;100991.97;5005745;28;20437;-88
2022/07/21 10:05:38;;;;;;;11.60;4.80;;;;;;;24.78;100.00;100999.25;5019709;28;20431;-88
2022/07/21 10:08:06;;;;;;;9.40;5.18;;;;;;;24.50;100.00;100991.97;5003956;28;20431;-86
2022/07/21 10:10:39;;;;;;;16.65;5.55;;;;;;;24.56;100.00;100990.47;5007999;28;20435;-89
2022/07/21 10:13:13;;;;;;;11.43;5.65;;;;;;;24.75;100.00;101000.81;5006065;28;21287;-88
2022/07/21 10:15:47;;;;;;;10.90;5.95;;;;;;;24.64;100.00;101002.59;5016671;28;20421;-87
2022/07/21 10:18:18;;;;;;;12.43;6.47;;;;;;;24.90;100.00;101001.88;5010877;28;20423;-88
2022/07/21 10:21:00;;;;;;;12.25;6.25;;;;;;;25.04;100.00;100998.53;5008699;28;20433;-89
2022/07/21 10:23:36;;;;;;;13.95;6.90;;;;;;;24.89;100.00;101002.25;5007664;28;20427;-89
2022/07/21 10:26:06;;;;;;;15.35;6.80;;;;;;;24.74;100.00;101001.19;5001784;28;20526;-88
2022/07/21 10:28:39;;;;;;;13.25;7.10;;;;;;;24.81;100.00;101001.31;5002135;28;20448;-89
2022/07/21 10:31:16;;;;;;;11.88;7.47;;;;;;;24.66;100.00;101003.00;5003096;28;20995;-89
2022/07/21 10:33:57;;;;;;;13.45;7.15;;;;;;;24.62;100.00;100999.34;5003758;28;20431;-88
2022/07/21 10:36:54;;;;;;;15.52;8.40;;;;;;;24.54;100.00;101000.34;5003994;28;20429;-89
2022/07/21 10:39:26;;;;;;;13.00;7.13;;;;;;;24.81;100.00;101011.63;4991548;28;21018;-88
2022/07/21 10:41:58;;;;;;;13.03;6.37;;;;;;;24.90;100.00;101010.22;5009055;28;20417;-89
2022/07/21 10:44:43;;;;;;;12.68;7.10;;;;;;;24.69;100.00;101019.00;5002960;28;20427;-88
2022/07/21 10:47:13;;;;;;;12.05;6.60;;;;;;;24.90;100.00;101013.00;5009712;28;20541;-87
2022/07/21 10:49:52;;;;;;;12.07;6.80;;;;;;;24.67;100.00;101012.19;5010007;28;20438;-89
2022/07/21 10:53:10;;;;;;;12.33;7.60;;;;;;;24.39;100.00;101024.34;5009066;28;20474;-89
2022/07/21 10:55:47;;;;;;;15.57;8.68;;;;;;;24.17;100.00;101018.31;4947285;28;20473;-89
2022/07/21 10:58:19;;;;;;;15.23;8.85;;;;;;;23.76;100.00;101001.91;5001243;28;20426;-89
2022/07/21 11:00:50;;;;;;;13.52;9.05;;;;;;;24.06;100.00;101025.63;5027184;28;20434;-88
2022/07/21 11:03:28;;;;;;;15.85;10.00;;;;;;;23.94;100.00;101029.34;5006732;28;20435;-89
2022/07/21 11:06:22;;;;;;;19.73;10.40;;;;;;;23.97;100.00;101011.13;5009364;28;20433;-89
2022/07/21 11:09:09;;;;;;;17.40;11.32;;;;;;;23.93;100.00;101028.53;5012155;28;20931;-88
2022/07/21 11:11:40;;;;;;;15.85;10.55;;;;;;;24.19;100.00;101017.94;5001444;28;20667;-92
2022/07/21 11:14:11;;;;;;;16.23;10.68;;;;;;;24.12;100.00;101032.50;5001794;28;20427;-89
2022/07/21 11:17:09;;;;;;;18.63;11.02;;;;;;;24.28;100.00;101021.31;5004876;28;20911;-88
2022/07/21 11:19:48;;;;;;;13.90;10.05;;;;;;;24.55;100.00;101027.00;5008163;28;20442;-88
2022/07/21 11:22:20;;;;;;;15.18;10.30;;;;;;;24.41;100.00;101013.63;5005547;28;20788;-89
2022/07/21 11:24:50;;;;;;;14.73;10.40;;;;;;;24.22;100.00;101028.34;5009732;28;20429;-88
2022/07/21 11:27:20;;;;;;;14.17;9.60;;;;;;;24.26;100.00;101032.81;5003582;28;20785;-89
2022/07/21 11:29:51;;;;;;;13.23;9.70;;;;;;;24.44;100.00;101037.94;5001743;28;20943;-87
2022/07/21 11:32:20;;;;;;;14.35;10.88;;;;;;;24.44;100.00;101043.50;5006329;28;20452;-88
2022/07/21 11:34:55;;;;;;;15.57;10.68;;;;;;;24.60;100.00;101035.06;5005696;28;20422;-89
2022/07/21 11:37:32;;;;;;;12.65;8.85;;;;;;;24.70;100.00;101036.47;5007199;28;20795;-88